Pagina principală
METAR-TAF:

METAR-TAF

Aeroporturi :

Arlington Municipal Airport

Arlington, Washington, Statele Unite ale Americii

Latitudine: 48-10N, longitudine: 122-10W, elevație: 42 m

Observații meteo curente

Raportul a fost făcut în urmă cu 1 oră și 13 de minute, la 08:56 UTC
Vânt 3 kt de la Nord-vest
Temperatură 16°C
Umiditate 88%
Presiune 1014 hPa
Vizibilitate: 16.1 km
Cer senin

METAR: KAWO 170856Z AUTO 31003KT 10SM CLR 16/14 A2993 RMK AO2 SLP139 T01610144 51004

Ora: 03:09 (10:09 UTC)


TAF: lipsă

Observații și prognoze meteo pentru peste 4.000 de aeroporturi (rapoarte METAR și TAF).

Stațiile disponibile sunt reprezentate pe hartă prin puncte galbene și roșii.

Țineți indicatorul mouse-ului pe punctul dorit pentru a vedea denumirea stației.

Apoi, faceți clic pentru a vedea observațiile și prognozele meteorologice.

Pentru a schimba harta: Pentru mărire, faceți clic pe butoanele verzi cu cruce neagră; pentru micșorare, pe butonul verde cu o liniuță; pentru hărți învecinate, pe săgețile verzi.


METAR-TAF: